Adams, Tennessee
Current Conditions -  °F | °C
As of 9:55 PM on Thursday 18 Dec 2014 (Local Time) from KM91 Reporting Station
Overcast Overcast  
Wind Chill: 34°   Ceiling: 4300
Heat Index: 34°   Visibility: 9mi
Dew Point: 32°   Wind: 0mph
Humidity: 93%   Direction: NA
Pressure: 30.25"   Gusts: NA
Location:  36.58°N, 87.07°W
Report Text: KM91 190355Z AUTO 00000KT 9SM BKN043 OVC050 01/00 A3025 RMK
Loading
Personal Weather Stations






























Interactive Weather Map New forecast layout! Learn more

10-Day Weather Forecast

Advertisements
Track Severe Weather on mobile